createdAt,value
2017-09-07T00:00:36.934Z,0
2017-09-07T00:01:38.557Z,0
2017-09-07T00:02:40.173Z,0
2017-09-07T00:03:41.789Z,0
2017-09-07T00:04:43.416Z,0
2017-09-07T00:05:45.033Z,0
2017-09-07T00:06:46.648Z,0
2017-09-07T00:07:48.261Z,0
2017-09-07T00:08:49.884Z,0
2017-09-07T00:09:51.501Z,0
2017-09-07T00:10:53.111Z,0
2017-09-07T00:11:54.729Z,0
2017-09-07T00:12:56.350Z,0
2017-09-07T00:13:57.976Z,0
2017-09-07T00:14:59.589Z,0
2017-09-07T00:16:01.207Z,0
2017-09-07T00:17:02.832Z,0
2017-09-07T00:18:04.445Z,0
2017-09-07T00:19:06.058Z,0
2017-09-07T00:20:07.676Z,0
2017-09-07T00:21:09.296Z,0
2017-09-07T00:22:10.919Z,0
2017-09-07T00:23:12.543Z,0
2017-09-07T00:24:14.149Z,0
2017-09-07T00:25:15.758Z,0
2017-09-07T00:26:17.386Z,0
2017-09-07T00:27:19.012Z,0
2017-09-07T00:28:20.630Z,0
2017-09-07T00:29:22.245Z,0
2017-09-07T00:30:23.856Z,0
2017-09-07T00:31:25.476Z,0
2017-09-07T00:32:27.090Z,0
2017-09-07T00:33:28.702Z,0
2017-09-07T00:34:30.329Z,0
2017-09-07T00:35:31.958Z,0
2017-09-07T00:36:33.570Z,0
2017-09-07T00:37:35.182Z,0
2017-09-07T00:38:36.796Z,0
2017-09-07T00:39:38.423Z,0
2017-09-07T00:40:40.034Z,0
2017-09-07T00:41:41.676Z,0
2017-09-07T00:42:43.276Z,0
2017-09-07T00:43:44.888Z,0
2017-09-07T00:44:46.502Z,0
2017-09-07T00:45:48.118Z,0
2017-09-07T00:46:49.744Z,0
2017-09-07T00:47:51.368Z,0
2017-09-07T00:48:52.989Z,0
2017-09-07T00:49:54.605Z,0
2017-09-07T00:50:56.218Z,0
2017-09-07T00:51:57.835Z,0
2017-09-07T00:52:59.459Z,0
2017-09-07T00:54:01.070Z,0
2017-09-07T00:55:02.690Z,0
2017-09-07T00:56:04.303Z,0
2017-09-07T00:57:05.920Z,0
2017-09-07T00:58:07.543Z,0
2017-09-07T00:59:09.163Z,0
2017-09-07T01:00:10.782Z,0
2017-09-07T01:01:12.394Z,0
2017-09-07T01:02:14.023Z,0
2017-09-07T01:03:15.641Z,0
2017-09-07T01:04:17.258Z,0
2017-09-07T01:05:18.884Z,0
2017-09-07T01:06:20.490Z,0
2017-09-07T01:07:22.106Z,0
2017-09-07T01:08:23.733Z,0
2017-09-07T01:09:25.353Z,0
2017-09-07T01:10:26.964Z,0
2017-09-07T01:11:28.580Z,0
2017-09-07T01:12:30.204Z,0
2017-09-07T01:13:31.820Z,0
2017-09-07T01:14:33.435Z,0
2017-09-07T01:15:35.042Z,0
2017-09-07T01:16:36.664Z,0
2017-09-07T01:17:38.290Z,0
2017-09-07T01:18:39.905Z,0
2017-09-07T01:19:41.520Z,0
2017-09-07T01:20:43.143Z,0
2017-09-07T01:21:44.764Z,0
2017-09-07T01:22:46.388Z,0
2017-09-07T01:23:48.000Z,0
2017-09-07T01:24:49.615Z,0
2017-09-07T01:25:51.231Z,0
2017-09-07T01:26:52.878Z,0
2017-09-07T01:27:54.474Z,0
2017-09-07T01:28:56.100Z,0
2017-09-07T01:29:57.715Z,0
2017-09-07T01:30:59.330Z,0
2017-09-07T01:32:00.960Z,0
2017-09-07T01:33:02.591Z,0
2017-09-07T01:34:04.207Z,0
2017-09-07T01:35:05.819Z,0
2017-09-07T01:36:07.434Z,0
2017-09-07T01:37:09.047Z,0
2017-09-07T01:38:10.673Z,0
2017-09-07T01:39:12.293Z,0
2017-09-07T01:40:13.910Z,0
2017-09-07T01:41:15.523Z,0
2017-09-07T01:42:17.143Z,0
2017-09-07T01:43:18.770Z,0
2017-09-07T01:44:20.386Z,0
2017-09-07T01:45:22.001Z,0
2017-09-07T01:46:23.623Z,0
2017-09-07T01:47:25.247Z,0
2017-09-07T01:48:26.857Z,0
2017-09-07T01:49:28.471Z,0
2017-09-07T01:50:30.094Z,0
2017-09-07T01:51:31.713Z,0
2017-09-07T01:52:33.326Z,0
2017-09-07T01:53:34.945Z,0
2017-09-07T01:54:36.561Z,0
2017-09-07T01:55:38.188Z,0
2017-09-07T01:56:39.808Z,0
2017-09-07T01:57:41.416Z,0
2017-09-07T01:58:43.046Z,0
2017-09-07T01:59:44.662Z,0
2017-09-07T02:00:46.276Z,0
2017-09-07T02:01:47.897Z,0
2017-09-07T02:02:49.523Z,0
2017-09-07T02:03:51.135Z,0
2017-09-07T02:04:52.763Z,0
2017-09-07T02:05:54.396Z,0
2017-09-07T02:06:56.002Z,0
2017-09-07T02:07:57.620Z,0
2017-09-07T02:08:59.243Z,0
2017-09-07T02:10:00.858Z,0
2017-09-07T02:11:02.484Z,0
2017-09-07T02:12:04.098Z,0
2017-09-07T02:13:05.726Z,0
2017-09-07T02:14:07.353Z,0
2017-09-07T02:15:08.969Z,0
2017-09-07T02:16:10.589Z,0
2017-09-07T02:17:12.206Z,0
2017-09-07T02:18:13.829Z,0
2017-09-07T02:19:15.438Z,0
2017-09-07T02:20:17.051Z,0
2017-09-07T02:21:18.675Z,0
2017-09-07T02:22:20.290Z,0
2017-09-07T02:23:21.907Z,0
2017-09-07T02:24:23.516Z,0
2017-09-07T02:25:25.144Z,0
2017-09-07T02:26:26.769Z,0
2017-09-07T02:27:28.386Z,0
2017-09-07T02:28:29.999Z,0
2017-09-07T02:29:31.620Z,0
2017-09-07T02:30:33.237Z,0
2017-09-07T02:31:34.849Z,0
2017-09-07T02:32:36.460Z,0
2017-09-07T02:33:38.087Z,0
2017-09-07T02:34:39.701Z,0
2017-09-07T02:35:41.328Z,0
2017-09-07T02:36:42.947Z,0
2017-09-07T02:37:44.562Z,0
2017-09-07T02:38:46.180Z,0
2017-09-07T02:39:47.799Z,0
2017-09-07T02:40:49.422Z,0
2017-09-07T02:41:51.034Z,0
2017-09-07T02:42:52.650Z,0
2017-09-07T02:43:54.275Z,0
2017-09-07T02:44:55.897Z,0
2017-09-07T02:45:57.505Z,0
2017-09-07T02:46:59.124Z,0
2017-09-07T02:48:00.744Z,0
2017-09-07T02:49:02.367Z,0
2017-09-07T02:50:03.982Z,0
2017-09-07T02:51:05.599Z,0
2017-09-07T02:52:07.223Z,0
2017-09-07T02:53:08.844Z,0
2017-09-07T02:54:10.457Z,0
2017-09-07T02:55:12.073Z,0
2017-09-07T02:56:13.697Z,0
2017-09-07T02:57:15.317Z,0
2017-09-07T02:58:16.931Z,0
2017-09-07T02:59:18.550Z,0
2017-09-07T03:00:20.164Z,0
2017-09-07T03:01:21.790Z,0
2017-09-07T03:02:23.407Z,0
2017-09-07T03:03:25.016Z,0
2017-09-07T03:04:26.646Z,0
2017-09-07T03:05:28.266Z,0
2017-09-07T03:06:29.881Z,0
2017-09-07T03:07:31.501Z,0
2017-09-07T03:08:33.121Z,0
2017-09-07T03:09:34.731Z,0
2017-09-07T03:10:36.356Z,0
2017-09-07T03:11:37.985Z,0
2017-09-07T03:12:39.598Z,0
2017-09-07T03:13:41.227Z,0
2017-09-07T03:14:42.834Z,0
2017-09-07T03:15:44.443Z,0
2017-09-07T03:16:46.069Z,0
2017-09-07T03:17:47.689Z,0
2017-09-07T03:18:49.304Z,0
2017-09-07T03:19:50.920Z,0
2017-09-07T03:20:52.541Z,0
2017-09-07T03:21:54.167Z,0
2017-09-07T03:22:55.777Z,0
2017-09-07T03:23:57.399Z,0
2017-09-07T03:24:59.017Z,0
2017-09-07T03:26:00.641Z,0
2017-09-07T03:27:02.281Z,0
2017-09-07T03:28:03.894Z,0
2017-09-07T03:29:05.521Z,0
2017-09-07T03:30:07.147Z,0
2017-09-07T03:31:08.757Z,0
2017-09-07T03:32:10.383Z,0
2017-09-07T03:33:11.997Z,0
2017-09-07T03:34:13.613Z,0
2017-09-07T03:35:15.233Z,0
2017-09-07T03:36:16.850Z,0
2017-09-07T03:37:18.464Z,0
2017-09-07T03:38:20.077Z,0
2017-09-07T03:39:21.704Z,0
2017-09-07T03:40:23.315Z,0
2017-09-07T03:41:24.943Z,0
2017-09-07T03:42:26.560Z,0
2017-09-07T03:43:28.173Z,0
2017-09-07T03:44:29.790Z,0
2017-09-07T03:45:31.412Z,0
2017-09-07T03:46:33.036Z,0
2017-09-07T03:47:34.651Z,0
2017-09-07T03:48:36.268Z,0
2017-09-07T03:49:37.881Z,0
2017-09-07T03:50:39.497Z,0
2017-09-07T03:51:41.123Z,0
2017-09-07T03:52:42.747Z,0
2017-09-07T03:53:44.357Z,0
2017-09-07T03:54:45.976Z,0
2017-09-07T03:55:47.595Z,0
2017-09-07T03:56:49.224Z,0
2017-09-07T03:57:50.841Z,0
2017-09-07T03:58:52.457Z,0
2017-09-07T03:59:54.077Z,0
2017-09-07T04:00:55.694Z,0
2017-09-07T04:01:57.314Z,0
2017-09-07T04:02:58.930Z,0
2017-09-07T04:04:00.558Z,0
2017-09-07T04:05:02.170Z,0
2017-09-07T04:06:03.782Z,0
2017-09-07T04:07:05.402Z,0
2017-09-07T04:08:07.025Z,0
2017-09-07T04:09:08.642Z,0
2017-09-07T04:10:10.255Z,0
2017-09-07T04:11:11.885Z,0
2017-09-07T04:12:13.500Z,0
2017-09-07T04:13:15.123Z,0
2017-09-07T04:14:16.739Z,0
2017-09-07T04:15:18.352Z,0
2017-09-07T04:16:19.973Z,0
2017-09-07T04:17:21.591Z,0
2017-09-07T04:18:23.218Z,0
2017-09-07T04:19:24.825Z,0
2017-09-07T04:20:26.442Z,0
2017-09-07T04:21:28.059Z,0
2017-09-07T04:22:29.674Z,0
2017-09-07T04:23:31.305Z,0
2017-09-07T04:24:32.925Z,0
2017-09-07T04:25:34.535Z,0
2017-09-07T04:26:36.149Z,0
2017-09-07T04:27:37.772Z,0
2017-09-07T04:28:39.395Z,0
2017-09-07T04:29:41.008Z,0
2017-09-07T04:30:42.627Z,0
2017-09-07T04:31:44.248Z,0
2017-09-07T04:32:45.874Z,0
2017-09-07T04:33:47.485Z,0
2017-09-07T04:34:49.111Z,0
2017-09-07T04:35:50.727Z,0
2017-09-07T04:36:52.346Z,0
2017-09-07T04:37:53.966Z,0
2017-09-07T04:38:55.583Z,0
2017-09-07T04:39:57.198Z,0
2017-09-07T04:40:58.825Z,0
2017-09-07T04:42:00.452Z,0
2017-09-07T04:43:02.074Z,0
2017-09-07T04:44:03.689Z,0
2017-09-07T04:45:05.304Z,5
2017-09-07T04:46:06.922Z,5
2017-09-07T04:47:08.546Z,5
2017-09-07T04:48:10.170Z,5
2017-09-07T04:49:11.782Z,5
2017-09-07T04:50:13.396Z,5
2017-09-07T04:51:15.014Z,5
2017-09-07T04:52:16.638Z,5
2017-09-07T04:53:18.263Z,5
2017-09-07T04:54:19.899Z,5
2017-09-07T04:55:21.511Z,5
2017-09-07T04:56:23.129Z,5
2017-09-07T04:57:24.753Z,5
2017-09-07T04:58:26.372Z,11
2017-09-07T04:59:27.988Z,11
2017-09-07T05:00:29.608Z,11
2017-09-07T05:01:31.229Z,11
2017-09-07T05:02:32.854Z,11
2017-09-07T05:03:34.467Z,16
2017-09-07T05:04:36.084Z,16
2017-09-07T05:05:37.724Z,16
2017-09-07T05:06:39.355Z,16
2017-09-07T05:07:40.973Z,16
2017-09-07T05:08:42.591Z,16
2017-09-07T05:09:44.213Z,16
2017-09-07T05:10:45.843Z,16
2017-09-07T05:11:47.447Z,16
2017-09-07T05:12:49.071Z,16
2017-09-07T05:13:50.701Z,16
2017-09-07T05:14:52.318Z,22
2017-09-07T05:15:53.937Z,28
2017-09-07T05:16:55.619Z,33
2017-09-07T05:17:57.239Z,39
2017-09-07T05:18:58.867Z,45
2017-09-07T05:20:00.488Z,50
2017-09-07T05:21:02.116Z,56
2017-09-07T05:22:03.866Z,56
2017-09-07T05:23:05.487Z,56
2017-09-07T05:24:07.117Z,50
2017-09-07T05:25:08.732Z,45
2017-09-07T05:26:10.354Z,56
2017-09-07T05:27:11.986Z,67
2017-09-07T05:28:13.609Z,73
2017-09-07T05:29:15.226Z,78
2017-09-07T05:30:16.862Z,90
2017-09-07T05:31:18.489Z,90
2017-09-07T05:32:20.115Z,95
2017-09-07T05:33:21.732Z,106
2017-09-07T05:34:25.209Z,118
2017-09-07T05:35:26.836Z,129
2017-09-07T05:36:28.478Z,140
2017-09-07T05:37:30.093Z,151
2017-09-07T05:38:31.718Z,157
2017-09-07T05:39:33.349Z,157
2017-09-07T05:40:34.970Z,157
2017-09-07T05:41:36.596Z,163
2017-09-07T05:42:38.219Z,185
2017-09-07T05:43:39.844Z,196
2017-09-07T05:44:41.465Z,202
2017-09-07T05:45:43.085Z,191
2017-09-07T05:46:44.720Z,185
2017-09-07T05:47:46.351Z,174
2017-09-07T05:48:47.976Z,163
2017-09-07T05:49:49.598Z,163
2017-09-07T05:50:51.217Z,129
2017-09-07T05:51:52.848Z,185
2017-09-07T05:52:54.470Z,185
2017-09-07T05:53:56.099Z,185
2017-09-07T05:54:57.717Z,168
2017-09-07T05:55:59.334Z,157
2017-09-07T05:57:00.958Z,157
2017-09-07T05:58:02.582Z,163
2017-09-07T05:59:04.215Z,174
2017-09-07T06:00:05.836Z,196
2017-09-07T06:01:07.459Z,213
2017-09-07T06:02:09.091Z,230
2017-09-07T06:03:10.712Z,247
2017-09-07T06:04:12.331Z,253
2017-09-07T06:05:13.962Z,253
2017-09-07T06:06:15.591Z,258
2017-09-07T06:07:17.221Z,281
2017-09-07T06:08:18.838Z,225
2017-09-07T06:09:20.477Z,174
2017-09-07T06:10:22.101Z,315
2017-09-07T06:11:23.725Z,320
2017-09-07T06:12:25.350Z,337
2017-09-07T06:13:26.980Z,376
2017-09-07T06:14:28.610Z,343
2017-09-07T06:15:30.227Z,360
2017-09-07T06:16:31.853Z,382
2017-09-07T06:17:33.486Z,393
2017-09-07T06:18:35.108Z,421
2017-09-07T06:19:36.730Z,455
2017-09-07T06:20:38.368Z,489
2017-09-07T06:21:39.984Z,528
2017-09-07T06:22:41.605Z,556
2017-09-07T06:23:43.238Z,540
2017-09-07T06:24:44.857Z,466
2017-09-07T06:25:46.479Z,393
2017-09-07T06:26:48.113Z,371
2017-09-07T06:27:49.732Z,354
2017-09-07T06:28:51.351Z,354
2017-09-07T06:29:52.985Z,326
2017-09-07T06:30:54.621Z,185
2017-09-07T06:31:56.235Z,298
2017-09-07T06:32:57.876Z,298
2017-09-07T06:33:59.504Z,275
2017-09-07T06:35:01.132Z,275
2017-09-07T06:36:02.760Z,275
2017-09-07T06:37:04.384Z,275
2017-09-07T06:38:06.003Z,270
2017-09-07T06:39:07.621Z,258
2017-09-07T06:40:09.257Z,258
2017-09-07T06:41:10.883Z,258
2017-09-07T06:42:12.504Z,264
2017-09-07T06:43:14.124Z,270
2017-09-07T06:44:15.755Z,286
2017-09-07T06:45:17.386Z,298
2017-09-07T06:46:19.008Z,315
2017-09-07T06:47:20.630Z,343
2017-09-07T06:48:22.256Z,360
2017-09-07T06:49:23.877Z,382
2017-09-07T06:50:25.512Z,405
2017-09-07T06:51:27.134Z,427
2017-09-07T06:52:28.755Z,438
2017-09-07T06:53:30.381Z,450
2017-09-07T06:54:32.010Z,568
2017-09-07T06:55:33.643Z,450
2017-09-07T06:56:35.264Z,483
2017-09-07T06:57:36.894Z,348
2017-09-07T06:58:38.512Z,303
2017-09-07T06:59:40.133Z,270
2017-09-07T07:00:41.761Z,247
2017-09-07T07:01:43.383Z,236
2017-09-07T07:02:45.008Z,219
2017-09-07T07:03:46.628Z,213
2017-09-07T07:04:48.263Z,219
2017-09-07T07:05:49.882Z,230
2017-09-07T07:06:51.511Z,247
2017-09-07T07:07:53.141Z,270
2017-09-07T07:08:54.759Z,303
2017-09-07T07:09:56.382Z,326
2017-09-07T07:10:58.018Z,348
2017-09-07T07:11:59.639Z,348
2017-09-07T07:13:01.259Z,360
2017-09-07T07:14:02.881Z,371
2017-09-07T07:15:04.516Z,382
2017-09-07T07:16:06.141Z,405
2017-09-07T07:17:07.761Z,433
2017-09-07T07:18:09.386Z,466
2017-09-07T07:19:11.011Z,500
2017-09-07T07:20:12.641Z,523
2017-09-07T07:21:14.263Z,523
2017-09-07T07:22:15.889Z,500
2017-09-07T07:23:17.525Z,483
2017-09-07T07:24:19.145Z,489
2017-09-07T07:25:20.768Z,534
2017-09-07T07:26:22.403Z,551
2017-09-07T07:27:24.018Z,562
2017-09-07T07:28:25.637Z,562
2017-09-07T07:29:27.267Z,562
2017-09-07T07:30:28.885Z,573
2017-09-07T07:31:30.507Z,596
2017-09-07T07:32:32.145Z,641
2017-09-07T07:33:33.764Z,680
2017-09-07T07:34:35.382Z,714
2017-09-07T07:35:37.019Z,776
2017-09-07T07:36:38.650Z,990
2017-09-07T07:37:40.270Z,950
2017-09-07T07:38:41.898Z,1001
2017-09-07T07:39:43.519Z,956
2017-09-07T07:40:45.159Z,2604
2017-09-07T07:41:46.785Z,1091
2017-09-07T07:42:48.402Z,1102
2017-09-07T07:43:50.038Z,1108
2017-09-07T07:44:51.668Z,1130
2017-09-07T07:45:53.293Z,1968
2017-09-07T07:46:54.919Z,2705
2017-09-07T07:47:56.558Z,2857
2017-09-07T07:48:58.203Z,4066
2017-09-07T07:49:59.860Z,1800
2017-09-07T07:51:01.457Z,1141
2017-09-07T07:52:03.087Z,1096
2017-09-07T07:53:04.732Z,1040
2017-09-07T07:54:06.363Z,990
2017-09-07T07:55:07.973Z,956
2017-09-07T07:56:09.612Z,945
2017-09-07T07:57:11.236Z,933
2017-09-07T07:58:12.864Z,888
2017-09-07T07:59:14.492Z,781
2017-09-07T08:00:16.123Z,759
2017-09-07T08:01:17.758Z,748
2017-09-07T08:02:19.388Z,770
2017-09-07T08:03:21.021Z,781
2017-09-07T08:04:22.647Z,804
2017-09-07T08:05:24.274Z,849
2017-09-07T08:06:25.906Z,888
2017-09-07T08:07:27.531Z,860
2017-09-07T08:08:29.160Z,883
2017-09-07T08:09:30.799Z,832
2017-09-07T08:10:32.423Z,731
2017-09-07T08:11:34.051Z,646
2017-09-07T08:12:35.686Z,590
2017-09-07T08:13:37.308Z,562
2017-09-07T08:14:38.931Z,556
2017-09-07T08:15:40.568Z,556
2017-09-07T08:16:42.184Z,545
2017-09-07T08:17:43.820Z,545
2017-09-07T08:18:45.446Z,573
2017-09-07T08:19:47.070Z,585
2017-09-07T08:20:48.693Z,562
2017-09-07T08:21:50.317Z,528
2017-09-07T08:22:51.955Z,528
2017-09-07T08:23:53.585Z,551
2017-09-07T08:24:55.213Z,551
2017-09-07T08:25:56.833Z,545
2017-09-07T08:26:58.459Z,540
2017-09-07T08:28:00.099Z,534
2017-09-07T08:29:01.725Z,517
2017-09-07T08:30:03.347Z,517
2017-09-07T08:31:04.970Z,540
2017-09-07T08:32:06.607Z,613
2017-09-07T08:33:08.244Z,697
2017-09-07T08:34:09.871Z,810
2017-09-07T08:35:11.507Z,849
2017-09-07T08:36:13.132Z,961
2017-09-07T08:37:14.756Z,1001
2017-09-07T08:38:16.394Z,1080
2017-09-07T08:39:18.025Z,1108
2017-09-07T08:40:19.662Z,1029
2017-09-07T08:41:21.299Z,1068
2017-09-07T08:42:22.921Z,1080
2017-09-07T08:43:24.546Z,1023
2017-09-07T08:44:26.180Z,900
2017-09-07T08:45:27.806Z,905
2017-09-07T08:46:29.435Z,1051
2017-09-07T08:47:31.069Z,1018
2017-09-07T08:48:32.693Z,1091
2017-09-07T08:49:34.319Z,1192
2017-09-07T08:50:35.945Z,1215
2017-09-07T08:51:37.577Z,1248
2017-09-07T08:52:39.210Z,1434
2017-09-07T08:53:40.848Z,1462
2017-09-07T08:54:42.472Z,1777
2017-09-07T08:55:44.098Z,1479
2017-09-07T08:56:45.729Z,1316
2017-09-07T08:57:47.353Z,1254
2017-09-07T08:58:48.981Z,1310
2017-09-07T08:59:50.614Z,1473
2017-09-07T09:00:52.248Z,1710
2017-09-07T09:01:53.877Z,1800
2017-09-07T09:02:55.501Z,1293
2017-09-07T09:03:57.133Z,1063
2017-09-07T09:04:58.771Z,1001
2017-09-07T09:06:00.397Z,652
2017-09-07T09:07:02.020Z,641
2017-09-07T09:08:03.655Z,742
2017-09-07T09:09:05.282Z,922
2017-09-07T09:10:06.905Z,1035
2017-09-07T09:11:08.547Z,990
2017-09-07T09:12:10.170Z,776
2017-09-07T09:13:11.797Z,607
2017-09-07T09:14:13.435Z,495
2017-09-07T09:15:15.062Z,450
2017-09-07T09:16:16.683Z,478
2017-09-07T09:17:18.309Z,517
2017-09-07T09:18:19.932Z,551
2017-09-07T09:19:21.558Z,613
2017-09-07T09:20:23.195Z,691
2017-09-07T09:21:24.830Z,787
2017-09-07T09:22:26.441Z,838
2017-09-07T09:23:28.071Z,911
2017-09-07T09:24:29.699Z,911
2017-09-07T09:25:31.335Z,888
2017-09-07T09:26:32.959Z,916
2017-09-07T09:27:34.586Z,849
2017-09-07T09:28:36.225Z,770
2017-09-07T09:29:37.850Z,821
2017-09-07T09:30:39.479Z,933
2017-09-07T09:31:41.106Z,939
2017-09-07T09:32:42.729Z,922
2017-09-07T09:33:44.373Z,1023
2017-09-07T09:34:45.998Z,680
2017-09-07T09:35:47.621Z,573
2017-09-07T09:36:49.243Z,489
2017-09-07T09:37:50.881Z,427
2017-09-07T09:38:52.518Z,416
2017-09-07T09:39:54.145Z,444
2017-09-07T09:40:55.767Z,472
2017-09-07T09:41:57.394Z,489
2017-09-07T09:42:59.020Z,506
2017-09-07T09:44:00.654Z,500
2017-09-07T09:45:02.277Z,500
2017-09-07T09:46:03.933Z,455
2017-09-07T09:47:05.529Z,478
2017-09-07T09:48:07.157Z,568
2017-09-07T09:49:08.794Z,607
2017-09-07T09:50:10.419Z,652
2017-09-07T09:51:12.053Z,759
2017-09-07T09:52:13.676Z,804
2017-09-07T09:53:15.302Z,765
2017-09-07T09:54:16.932Z,618
2017-09-07T09:55:18.559Z,511
2017-09-07T09:56:20.193Z,641
2017-09-07T09:57:21.815Z,838
2017-09-07T09:58:23.442Z,1035
2017-09-07T09:59:25.082Z,1282
2017-09-07T10:00:26.722Z,2300
2017-09-07T10:01:28.332Z,1710
2017-09-07T10:02:29.962Z,1479
2017-09-07T10:03:31.596Z,1327
2017-09-07T10:04:33.222Z,1681
2017-09-07T10:05:34.847Z,1603
2017-09-07T10:06:36.476Z,1552
2017-09-07T10:07:38.108Z,1355
2017-09-07T10:08:39.734Z,1276
2017-09-07T10:09:41.363Z,1226
2017-09-07T10:10:43.005Z,1209
2017-09-07T10:11:44.642Z,1490
2017-09-07T10:12:46.271Z,1901
2017-09-07T10:13:47.900Z,2520
2017-09-07T10:14:49.526Z,1141
2017-09-07T10:15:51.149Z,1006
2017-09-07T10:16:52.787Z,793
2017-09-07T10:17:54.419Z,787
2017-09-07T10:18:56.054Z,905
2017-09-07T10:19:57.693Z,961
2017-09-07T10:20:59.314Z,922
2017-09-07T10:22:00.945Z,731
2017-09-07T10:23:02.571Z,551
2017-09-07T10:24:04.197Z,500
2017-09-07T10:25:05.830Z,461
2017-09-07T10:26:07.465Z,450
2017-09-07T10:27:09.089Z,691
2017-09-07T10:28:10.711Z,708
2017-09-07T10:29:12.336Z,601
2017-09-07T10:30:13.967Z,523
2017-09-07T10:31:15.610Z,545
2017-09-07T10:32:17.238Z,506
2017-09-07T10:33:18.866Z,393
2017-09-07T10:34:20.490Z,405
2017-09-07T10:35:22.117Z,613
2017-09-07T10:36:23.735Z,3065
2017-09-07T10:37:25.377Z,1288
2017-09-07T10:38:27.007Z,1231
2017-09-07T10:39:28.635Z,1085
2017-09-07T10:40:30.265Z,832
2017-09-07T10:41:31.902Z,590
2017-09-07T10:42:33.526Z,478
2017-09-07T10:43:35.151Z,405
2017-09-07T10:44:36.777Z,444
2017-09-07T10:45:38.408Z,911
2017-09-07T10:46:40.045Z,2345
2017-09-07T10:47:41.675Z,2745
2017-09-07T10:48:43.303Z,2975
2017-09-07T10:49:44.940Z,1057
2017-09-07T10:50:46.563Z,911
2017-09-07T10:51:48.192Z,1276
2017-09-07T10:52:49.826Z,770
2017-09-07T10:53:51.454Z,618
2017-09-07T10:54:53.089Z,742
2017-09-07T10:55:54.713Z,2131
2017-09-07T10:56:56.359Z,1113
2017-09-07T10:57:57.978Z,1395
2017-09-07T10:58:59.607Z,1333
2017-09-07T11:00:01.241Z,1614
2017-09-07T11:01:02.871Z,1158
2017-09-07T11:02:04.511Z,1040
2017-09-07T11:03:06.133Z,1715
2017-09-07T11:04:07.763Z,1119
2017-09-07T11:05:09.391Z,1254
2017-09-07T11:06:11.030Z,1293
2017-09-07T11:07:12.662Z,1327
2017-09-07T11:08:14.292Z,1248
2017-09-07T11:09:15.929Z,1096
2017-09-07T11:10:17.552Z,1068
2017-09-07T11:11:19.180Z,939
2017-09-07T11:12:20.814Z,798
2017-09-07T11:13:22.446Z,900
2017-09-07T11:14:24.071Z,1051
2017-09-07T11:15:25.704Z,1006
2017-09-07T11:16:27.335Z,905
2017-09-07T11:17:28.964Z,725
2017-09-07T11:18:30.591Z,624
2017-09-07T11:19:32.214Z,601
2017-09-07T11:20:33.852Z,551
2017-09-07T11:21:35.488Z,478
2017-09-07T11:22:37.113Z,399
2017-09-07T11:23:38.738Z,315
2017-09-07T11:24:40.368Z,253
2017-09-07T11:25:41.988Z,236
2017-09-07T11:26:43.626Z,270
2017-09-07T11:27:45.254Z,320
2017-09-07T11:28:46.879Z,354
2017-09-07T11:29:48.513Z,343
2017-09-07T11:30:50.137Z,264
2017-09-07T11:31:51.763Z,202
2017-09-07T11:32:53.397Z,174
2017-09-07T11:33:55.033Z,174
2017-09-07T11:34:56.656Z,180
2017-09-07T11:35:58.284Z,196
2017-09-07T11:36:59.917Z,213
2017-09-07T11:38:01.542Z,219
2017-09-07T11:39:03.163Z,225
2017-09-07T11:40:04.816Z,298
2017-09-07T11:41:06.426Z,382
2017-09-07T11:42:08.052Z,568
2017-09-07T11:43:09.681Z,613
2017-09-07T11:44:11.321Z,793
2017-09-07T11:45:12.941Z,776
2017-09-07T11:46:14.565Z,967
2017-09-07T11:47:16.197Z,984
2017-09-07T11:48:17.822Z,1130
2017-09-07T11:49:19.452Z,1884
2017-09-07T11:50:21.075Z,1721
2017-09-07T11:51:22.716Z,2250
2017-09-07T11:52:24.345Z,2615
2017-09-07T11:53:25.971Z,2306
2017-09-07T11:54:27.598Z,2109
2017-09-07T11:55:29.234Z,1445
2017-09-07T11:56:30.887Z,1366
2017-09-07T11:57:32.510Z,2233
2017-09-07T11:58:34.143Z,2497
2017-09-07T11:59:35.770Z,1254
2017-09-07T12:00:37.400Z,1040
2017-09-07T12:01:39.029Z,832
2017-09-07T12:02:40.659Z,810
2017-09-07T12:03:42.294Z,978
2017-09-07T12:04:43.923Z,1057
2017-09-07T12:05:45.554Z,1198
2017-09-07T12:06:47.185Z,1265
2017-09-07T12:07:48.819Z,1861
2017-09-07T12:08:50.452Z,1434
2017-09-07T12:09:52.077Z,1158
2017-09-07T12:10:53.704Z,1023
2017-09-07T12:11:55.344Z,1108
2017-09-07T12:12:56.974Z,950
2017-09-07T12:13:58.601Z,793
2017-09-07T12:15:00.237Z,703
2017-09-07T12:16:01.858Z,641
2017-09-07T12:17:03.485Z,562
2017-09-07T12:18:05.115Z,562
2017-09-07T12:19:06.751Z,551
2017-09-07T12:20:08.374Z,517
2017-09-07T12:21:10.001Z,489
2017-09-07T12:22:11.630Z,427
2017-09-07T12:23:13.259Z,393
2017-09-07T12:24:14.881Z,376
2017-09-07T12:25:16.507Z,427
2017-09-07T12:26:18.145Z,534
2017-09-07T12:27:19.772Z,596
2017-09-07T12:28:21.404Z,658
2017-09-07T12:29:23.036Z,686
2017-09-07T12:30:24.658Z,675
2017-09-07T12:31:26.288Z,630
2017-09-07T12:32:27.913Z,838
2017-09-07T12:33:29.570Z,2334
2017-09-07T12:34:31.183Z,1361
2017-09-07T12:35:32.806Z,1080
2017-09-07T12:36:34.444Z,2210
2017-09-07T12:37:36.080Z,1046
2017-09-07T12:38:37.698Z,883
2017-09-07T12:39:39.331Z,815
2017-09-07T12:40:40.965Z,2171
2017-09-07T12:41:42.605Z,1113
2017-09-07T12:42:44.224Z,849
2017-09-07T12:43:45.849Z,753
2017-09-07T12:44:47.483Z,686
2017-09-07T12:45:49.105Z,658
2017-09-07T12:46:50.737Z,675
2017-09-07T12:47:52.363Z,731
2017-09-07T12:48:53.998Z,736
2017-09-07T12:49:55.631Z,703
2017-09-07T12:50:57.252Z,658
2017-09-07T12:51:58.891Z,613
2017-09-07T12:53:00.514Z,601
2017-09-07T12:54:02.151Z,601
2017-09-07T12:55:03.779Z,573
2017-09-07T12:56:05.409Z,540
2017-09-07T12:57:07.032Z,495
2017-09-07T12:58:08.655Z,461
2017-09-07T12:59:10.305Z,500
2017-09-07T13:00:11.929Z,556
2017-09-07T13:01:13.559Z,562
2017-09-07T13:02:15.183Z,562
2017-09-07T13:03:16.811Z,579
2017-09-07T13:04:18.432Z,742
2017-09-07T13:05:20.072Z,916
2017-09-07T13:06:21.702Z,905
2017-09-07T13:07:23.326Z,826
2017-09-07T13:08:24.957Z,765
2017-09-07T13:09:26.593Z,781
2017-09-07T13:10:28.219Z,894
2017-09-07T13:11:29.847Z,1063
2017-09-07T13:12:31.481Z,1276
2017-09-07T13:13:33.113Z,1310
2017-09-07T13:14:34.751Z,1276
2017-09-07T13:15:36.376Z,1119
2017-09-07T13:16:38.009Z,945
2017-09-07T13:17:39.632Z,866
2017-09-07T13:18:41.258Z,821
2017-09-07T13:19:42.895Z,877
2017-09-07T13:20:44.520Z,945
2017-09-07T13:21:46.153Z,916
2017-09-07T13:22:47.786Z,832
2017-09-07T13:23:49.412Z,748
2017-09-07T13:24:51.052Z,680
2017-09-07T13:25:52.667Z,714
2017-09-07T13:26:54.306Z,905
2017-09-07T13:27:55.929Z,1023
2017-09-07T13:28:57.556Z,1029
2017-09-07T13:29:59.198Z,1006
2017-09-07T13:31:00.823Z,1001
2017-09-07T13:32:02.451Z,1018
2017-09-07T13:33:04.084Z,1023
2017-09-07T13:34:05.713Z,1035
2017-09-07T13:35:07.351Z,1057
2017-09-07T13:36:08.976Z,1057
2017-09-07T13:37:10.602Z,1057
2017-09-07T13:38:12.229Z,1046
2017-09-07T13:39:13.857Z,1035
2017-09-07T13:40:15.497Z,1006
2017-09-07T13:41:17.117Z,967
2017-09-07T13:42:18.756Z,945
2017-09-07T13:43:20.387Z,922
2017-09-07T13:44:22.014Z,911
2017-09-07T13:45:23.642Z,894
2017-09-07T13:46:25.277Z,888
2017-09-07T13:47:26.912Z,877
2017-09-07T13:48:28.535Z,871
2017-09-07T13:49:30.165Z,849
2017-09-07T13:50:31.787Z,826
2017-09-07T13:51:33.419Z,815
2017-09-07T13:52:35.045Z,815
2017-09-07T13:53:36.679Z,815
2017-09-07T13:54:38.304Z,826
2017-09-07T13:55:39.945Z,832
2017-09-07T13:56:41.570Z,838
2017-09-07T13:57:43.195Z,849
2017-09-07T13:58:44.821Z,838
2017-09-07T13:59:46.466Z,815
2017-09-07T14:00:48.098Z,810
2017-09-07T14:01:49.722Z,793
2017-09-07T14:02:51.349Z,804
2017-09-07T14:03:52.975Z,821
2017-09-07T14:04:54.613Z,832
2017-09-07T14:05:56.248Z,855
2017-09-07T14:06:57.878Z,883
2017-09-07T14:07:59.506Z,905
2017-09-07T14:09:01.137Z,905
2017-09-07T14:10:02.765Z,900
2017-09-07T14:11:04.405Z,894
2017-09-07T14:12:06.024Z,883
2017-09-07T14:13:07.649Z,871
2017-09-07T14:14:09.274Z,860
2017-09-07T14:15:10.902Z,810
2017-09-07T14:16:12.533Z,736
2017-09-07T14:17:14.168Z,641
2017-09-07T14:18:15.802Z,556
2017-09-07T14:19:17.425Z,483
2017-09-07T14:20:19.051Z,444
2017-09-07T14:21:20.683Z,405
2017-09-07T14:22:22.314Z,388
2017-09-07T14:23:23.934Z,365
2017-09-07T14:24:25.556Z,343
2017-09-07T14:25:27.193Z,331